Time;durP1;ratioP1;P1;durP2;ratioP2;P2;SDS_P1;SDS_P2;PMS_P1;PMS_P2;Temp;Humidity;BMP_temperature;BMP_pressure;BME280_temperature;BME280_humidity;BME280_pressure;Samples;Min_cycle;Max_cycle;Signal;HPM_P1;HPM_P2
2022/12/25 00:01:14;;;;;;;120.03;59.87;;;4.10;99.90;;;;;;5020597;28;20199;-67
2022/12/25 00:03:41;;;;;;;111.50;56.57;;;4.20;99.90;;;;;;5026862;28;20198;-66
2022/12/25 00:06:08;;;;;;;102.00;54.13;;;4.20;99.90;;;;;;5026650;28;20230;-65
2022/12/25 00:08:36;;;;;;;113.20;56.27;;;4.20;99.90;;;;;;5031348;28;20208;-66
2022/12/25 00:11:06;;;;;;;106.60;55.70;;;4.30;99.90;;;;;;5027537;28;20206;-66
2022/12/25 00:13:33;;;;;;;100.47;53.37;;;4.20;99.90;;;;;;5014809;28;20218;-68
2022/12/25 00:16:00;;;;;;;98.80;53.60;;;4.30;99.90;;;;;;5031373;28;20221;-67
2022/12/25 00:18:28;;;;;;;93.00;51.47;;;4.30;99.90;;;;;;5032519;28;20202;-65
2022/12/25 00:20:59;;;;;;;87.37;49.17;;;4.30;99.90;;;;;;5035479;28;20210;-66
2022/12/25 00:23:26;;;;;;;113.47;55.37;;;4.30;99.90;;;;;;5033684;28;20198;-66
2022/12/25 00:25:53;;;;;;;90.40;49.43;;;4.30;99.90;;;;;;5034904;28;20206;-65
2022/12/25 00:28:21;;;;;;;89.93;50.20;;;4.30;99.90;;;;;;5034814;28;20202;-67
2022/12/25 00:30:48;;;;;;;100.77;52.57;;;4.30;99.90;;;;;;5035183;28;20206;-65
2022/12/25 00:33:15;;;;;;;84.03;47.80;;;4.30;99.90;;;;;;5032026;28;20602;-66
2022/12/25 00:35:43;;;;;;;96.07;51.37;;;4.20;99.90;;;;;;5035093;28;20206;-66
2022/12/25 00:38:10;;;;;;;95.90;50.93;;;4.20;99.90;;;;;;5034514;28;20217;-66
2022/12/25 00:40:42;;;;;;;87.80;48.83;;;4.20;99.90;;;;;;5034197;28;20206;-65
2022/12/25 00:43:09;;;;;;;98.47;50.50;;;4.20;99.90;;;;;;5032803;28;20588;-67
2022/12/25 00:45:36;;;;;;;90.00;48.30;;;4.20;99.90;;;;;;5034924;28;20206;-66
2022/12/25 00:48:03;;;;;;;83.87;47.47;;;4.10;99.90;;;;;;5046764;28;20209;-67
2022/12/25 00:50:30;;;;;;;93.23;48.63;;;4.10;99.90;;;;;;5054514;28;20205;-68
2022/12/25 00:52:58;;;;;;;73.43;42.57;;;4.10;99.90;;;;;;5044031;28;20233;-66
2022/12/25 00:55:24;;;;;;;84.67;44.63;;;4.00;99.90;;;;;;5034673;28;20210;-67
2022/12/25 00:57:51;;;;;;;74.40;41.40;;;4.00;99.90;;;;;;5034683;28;20675;-66
2022/12/25 01:00:18;;;;;;;79.17;45.17;;;3.90;99.90;;;;;;5033254;28;20689;-66
2022/12/25 01:02:45;;;;;;;75.60;43.33;;;3.90;99.90;;;;;;5021084;28;20206;-65
2022/12/25 01:05:12;;;;;;;69.17;40.23;;;3.90;99.90;;;;;;5033640;28;20225;-66
2022/12/25 01:07:39;;;;;;;71.47;40.20;;;3.90;99.90;;;;;;5034661;28;20209;-67
2022/12/25 01:10:21;;;;;;;70.47;38.97;;;3.90;99.90;;;;;;5033986;28;20208;-65
2022/12/25 01:12:48;;;;;;;72.30;40.13;;;3.90;99.90;;;;;;5033217;28;20198;-67
2022/12/25 01:15:15;;;;;;;64.57;36.97;;;3.90;99.90;;;;;;5033974;28;20217;-66
2022/12/25 01:17:42;;;;;;;71.17;39.63;;;3.90;99.90;;;;;;5034323;28;20212;-66
2022/12/25 01:20:10;;;;;;;70.57;38.00;;;3.90;99.90;;;;;;5031103;28;20209;-66
2022/12/25 01:22:36;;;;;;;67.80;38.90;;;3.80;99.90;;;;;;5032869;28;20206;-67
2022/12/25 01:25:04;;;;;;;65.60;37.63;;;3.90;99.90;;;;;;5033528;28;20214;-66
2022/12/25 01:27:33;;;;;;;70.70;39.27;;;3.90;99.90;;;;;;5034202;28;20213;-66
2022/12/25 01:29:59;;;;;;;78.50;41.07;;;3.90;99.90;;;;;;5033363;28;20638;-66
2022/12/25 01:32:26;;;;;;;79.50;41.80;;;4.00;99.90;;;;;;5031561;28;20662;-67
2022/12/25 01:34:53;;;;;;;91.10;43.73;;;4.00;99.90;;;;;;5026949;28;20325;-67
2022/12/25 01:37:20;;;;;;;73.63;39.40;;;4.00;99.90;;;;;;5033643;28;20578;-66
2022/12/25 01:39:47;;;;;;;72.37;38.63;;;4.00;99.90;;;;;;5033128;28;20208;-66
2022/12/25 01:42:17;;;;;;;85.67;43.03;;;4.00;99.90;;;;;;5033297;28;20225;-66
2022/12/25 01:45:27;;;;;;;74.33;37.73;;;4.00;99.90;;;;;;5034075;28;20252;-66
2022/12/25 01:47:54;;;;;;;75.00;39.20;;;4.00;99.90;;;;;;5033143;28;20208;-66
2022/12/25 01:50:21;;;;;;;69.80;36.27;;;4.00;99.90;;;;;;5032846;28;20218;-66
2022/12/25 01:52:49;;;;;;;79.53;40.17;;;4.00;99.90;;;;;;5031004;28;20752;-68
2022/12/25 01:55:16;;;;;;;81.57;40.93;;;4.00;99.90;;;;;;5033346;28;20205;-67
2022/12/25 01:57:43;;;;;;;76.07;39.07;;;4.00;99.90;;;;;;5032865;28;20564;-66
2022/12/25 02:00:15;;;;;;;82.03;39.20;;;3.90;99.90;;;;;;5033380;28;20209;-66
2022/12/25 02:02:45;;;;;;;76.50;39.50;;;4.00;99.90;;;;;;5032618;28;20566;-67
2022/12/25 02:05:17;;;;;;;77.63;38.67;;;3.90;99.90;;;;;;5031647;28;20653;-67
2022/12/25 02:07:46;;;;;;;69.77;36.67;;;3.90;99.90;;;;;;5025627;28;20729;-67
2022/12/25 02:10:13;;;;;;;67.13;36.60;;;3.80;99.90;;;;;;5032885;28;20213;-67
2022/12/25 02:12:41;;;;;;;85.03;40.20;;;3.80;99.90;;;;;;5031967;28;20210;-67
2022/12/25 02:15:11;;;;;;;70.10;36.30;;;3.80;99.90;;;;;;5031140;28;20708;-66
2022/12/25 02:17:41;;;;;;;66.30;35.90;;;3.80;99.90;;;;;;5032537;28;20563;-65
2022/12/25 02:20:44;;;;;;;64.87;34.83;;;3.80;99.90;;;;;;5032647;28;20197;-66
2022/12/25 02:23:38;;;;;;;70.00;36.30;;;3.80;99.90;;;;;;5032117;28;20206;-66
2022/12/25 02:26:16;;;;;;;64.23;34.20;;;3.80;99.90;;;;;;5031872;28;20206;-66
2022/12/25 02:28:52;;;;;;;76.57;37.23;;;3.80;99.90;;;;;;5033037;28;20276;-66
2022/12/25 02:31:27;;;;;;;67.43;36.47;;;3.80;99.90;;;;;;5032901;28;20194;-66
2022/12/25 02:34:04;;;;;;;59.33;33.40;;;3.90;99.90;;;;;;5031258;28;20273;-66
2022/12/25 02:36:35;;;;;;;60.97;34.60;;;3.80;99.90;;;;;;5031941;28;20220;-66
2022/12/25 02:41:57;;;;;;;57.03;32.43;;;3.80;99.90;;;;;;5030907;28;20181;-66
2022/12/25 03:07:00;;;;;;;71.87;33.47;;;3.70;99.90;;;;;;5032170;28;20699;-65
2022/12/25 03:12:21;;;;;;;55.90;29.80;;;3.70;99.90;;;;;;5029653;28;20582;-66
2022/12/25 03:17:35;;;;;;;55.60;30.47;;;3.70;99.90;;;;;;5031952;28;20209;-66
2022/12/25 03:28:16;;;;;;;52.43;28.23;;;3.60;99.90;;;;;;5031380;28;20232;-67
2022/12/25 03:31:10;;;;;;;52.20;27.90;;;3.60;99.90;;;;;;5031809;28;20206;-66
2022/12/25 03:35:21;;;;;;;47.20;27.97;;;3.60;99.90;;;;;;5030026;28;20245;-67
2022/12/25 03:36:48;;;;;;;45.50;26.80;;;3.60;99.90;;;;;;5031644;28;20284;-66
2022/12/25 04:37:58;;;;;;;40.97;23.50;;;3.20;99.90;;;;;;5027554;28;20205;-68
2022/12/25 04:40:26;;;;;;;38.70;23.97;;;3.20;99.90;;;;;;5034149;28;20210;-67
2022/12/25 04:42:53;;;;;;;41.90;24.50;;;3.20;99.90;;;;;;5033471;28;20202;-65
2022/12/25 04:45:20;;;;;;;44.80;25.63;;;3.20;99.90;;;;;;5034824;28;20222;-66
2022/12/25 04:47:47;;;;;;;40.80;23.27;;;3.20;99.90;;;;;;5034119;28;20586;-67
2022/12/25 04:50:13;;;;;;;43.20;24.40;;;3.20;99.90;;;;;;5032749;28;20781;-66
2022/12/25 04:52:41;;;;;;;41.10;24.33;;;3.20;99.90;;;;;;5033376;28;20214;-65
2022/12/25 04:55:09;;;;;;;41.47;24.50;;;3.20;99.90;;;;;;5034708;28;20248;-66
2022/12/25 04:57:38;;;;;;;41.13;23.37;;;3.20;99.90;;;;;;5034184;28;20212;-66
2022/12/25 05:00:07;;;;;;;38.30;24.20;;;3.20;99.90;;;;;;5033306;28;20233;-68
2022/12/25 05:02:34;;;;;;;43.13;23.87;;;3.20;99.90;;;;;;5033241;28;20202;-65
2022/12/25 05:05:00;;;;;;;38.27;23.30;;;3.10;99.90;;;;;;5034035;28;20225;-66
2022/12/25 05:07:27;;;;;;;38.40;22.53;;;3.10;99.90;;;;;;5034501;28;20210;-66
2022/12/25 05:09:54;;;;;;;34.30;21.37;;;3.10;99.90;;;;;;5032995;28;20210;-66
2022/12/25 05:12:21;;;;;;;42.20;23.90;;;3.10;99.90;;;;;;5033689;28;20206;-65
2022/12/25 05:14:49;;;;;;;37.73;22.53;;;3.10;99.90;;;;;;5033754;28;20593;-66
2022/12/25 05:17:16;;;;;;;40.17;24.23;;;3.10;99.90;;;;;;5032896;28;20592;-67
2022/12/25 05:19:43;;;;;;;36.87;22.70;;;3.10;99.90;;;;;;5034031;28;20205;-66
2022/12/25 05:22:09;;;;;;;39.67;23.67;;;3.10;99.90;;;;;;5034232;28;20210;-66
2022/12/25 05:24:36;;;;;;;40.33;23.67;;;3.10;99.90;;;;;;5033078;28;20206;-66
2022/12/25 05:27:03;;;;;;;34.77;21.90;;;3.10;99.90;;;;;;5033401;28;20206;-68
2022/12/25 05:29:30;;;;;;;37.87;23.53;;;3.10;99.90;;;;;;5033503;28;20202;-67
2022/12/25 05:31:58;;;;;;;36.07;22.63;;;3.00;99.90;;;;;;5033788;28;20206;-68
2022/12/25 05:34:25;;;;;;;43.73;23.93;;;3.10;99.90;;;;;;5032290;28;20716;-68
2022/12/25 05:36:52;;;;;;;36.10;22.50;;;3.10;99.90;;;;;;5032674;28;20208;-65
2022/12/25 05:39:19;;;;;;;34.63;21.27;;;3.00;99.90;;;;;;5033502;28;20213;-66
2022/12/25 05:41:45;;;;;;;31.10;20.13;;;3.10;99.90;;;;;;5033481;28;20740;-66
2022/12/25 05:44:12;;;;;;;32.53;20.30;;;3.10;99.90;;;;;;5032794;28;20726;-67
2022/12/25 05:46:39;;;;;;;30.13;19.07;;;3.00;99.90;;;;;;5032316;28;20292;-67
2022/12/25 05:49:07;;;;;;;32.73;19.73;;;3.00;99.90;;;;;;5033757;28;20206;-67
2022/12/25 05:51:34;;;;;;;29.17;19.27;;;3.00;99.90;;;;;;5033219;28;20206;-68
2022/12/25 05:54:01;;;;;;;29.00;18.60;;;3.00;99.90;;;;;;5032608;28;20229;-67
2022/12/25 05:56:28;;;;;;;31.53;20.17;;;2.90;99.90;;;;;;5030057;28;20206;-67
2022/12/25 05:58:55;;;;;;;25.47;15.90;;;3.00;99.90;;;;;;5032373;28;20206;-67
2022/12/25 06:01:23;;;;;;;26.77;18.00;;;2.90;99.90;;;;;;5033082;28;20213;-66
2022/12/25 06:03:50;;;;;;;26.70;17.67;;;2.90;99.90;;;;;;5031435;28;20208;-67
2022/12/25 06:06:19;;;;;;;24.80;16.73;;;2.90;99.90;;;;;;5032156;28;20206;-68
2022/12/25 06:08:45;;;;;;;25.53;17.20;;;2.90;99.90;;;;;;5032894;28;20673;-67
2022/12/25 06:11:13;;;;;;;24.97;17.03;;;2.90;99.90;;;;;;5032440;28;20210;-67
2022/12/25 06:13:41;;;;;;;25.93;17.27;;;2.90;99.90;;;;;;5029950;28;20202;-66
2022/12/25 06:16:10;;;;;;;26.90;18.37;;;2.90;99.90;;;;;;5031925;28;20240;-66
2022/12/25 06:18:37;;;;;;;24.80;16.43;;;2.90;99.90;;;;;;5032546;28;20213;-66
2022/12/25 06:21:07;;;;;;;24.37;17.43;;;2.90;99.90;;;;;;5032790;28;20202;-66
2022/12/25 06:23:36;;;;;;;23.93;16.27;;;2.90;99.90;;;;;;5030598;28;20206;-66
2022/12/25 06:26:04;;;;;;;23.90;16.33;;;2.90;99.90;;;;;;5032552;28;20198;-66
2022/12/25 06:28:31;;;;;;;22.70;15.43;;;2.90;99.90;;;;;;5032257;28;20263;-66
2022/12/25 06:30:58;;;;;;;20.43;14.67;;;2.90;99.90;;;;;;5030589;28;20202;-67
2022/12/25 06:33:24;;;;;;;21.33;14.90;;;2.90;99.90;;;;;;5031164;28;20230;-66
2022/12/25 06:35:51;;;;;;;20.33;14.70;;;2.90;99.90;;;;;;5032278;28;20232;-67
2022/12/25 06:38:18;;;;;;;19.30;14.57;;;2.80;99.90;;;;;;5032359;28;20210;-67
2022/12/25 06:40:46;;;;;;;21.20;15.03;;;2.80;99.90;;;;;;5031945;28;20209;-66
2022/12/25 06:43:13;;;;;;;21.13;15.37;;;2.80;99.90;;;;;;5031652;28;20635;-66
2022/12/25 06:45:39;;;;;;;19.40;14.57;;;2.80;99.90;;;;;;5032432;28;20678;-67
2022/12/25 06:48:06;;;;;;;19.87;14.43;;;2.80;99.90;;;;;;5032327;28;20218;-67
2022/12/25 06:50:33;;;;;;;19.83;14.83;;;2.70;99.90;;;;;;5030637;28;20255;-67
2022/12/25 06:53:00;;;;;;;18.80;13.93;;;2.70;99.90;;;;;;5031815;28;20569;-68
2022/12/25 06:55:26;;;;;;;19.07;14.57;;;2.70;99.90;;;;;;5031740;28;20237;-67
2022/12/25 06:57:54;;;;;;;19.77;14.77;;;2.80;99.90;;;;;;5032248;28;20210;-67
2022/12/25 07:00:21;;;;;;;21.63;15.67;;;2.80;99.90;;;;;;5031377;28;20202;-65
2022/12/25 07:02:49;;;;;;;18.37;14.33;;;2.80;99.90;;;;;;5030626;28;20212;-67
2022/12/25 07:05:16;;;;;;;17.67;13.77;;;2.80;99.90;;;;;;5030819;28;20198;-67
2022/12/25 07:07:43;;;;;;;20.77;15.47;;;2.80;99.90;;;;;;5030380;28;20198;-66
2022/12/25 07:10:10;;;;;;;23.90;16.33;;;2.80;99.90;;;;;;5032238;28;20202;-68
2022/12/25 07:12:37;;;;;;;25.87;18.30;;;2.80;99.90;;;;;;5031206;28;20206;-66
2022/12/25 07:15:06;;;;;;;22.33;16.00;;;2.80;99.90;;;;;;5031429;28;20232;-67
2022/12/25 07:17:34;;;;;;;22.67;16.43;;;2.70;99.90;;;;;;5031528;28;20201;-68
2022/12/25 07:20:01;;;;;;;20.27;15.13;;;2.70;99.90;;;;;;5031861;28;20202;-66
2022/12/25 07:22:28;;;;;;;20.20;14.97;;;2.80;99.90;;;;;;5031023;28;20212;-67
2022/12/25 07:24:55;;;;;;;23.33;16.03;;;2.80;99.90;;;;;;5029224;28;20562;-66
2022/12/25 07:27:22;;;;;;;25.00;16.83;;;2.80;99.90;;;;;;5030136;28;20210;-66
2022/12/25 07:29:49;;;;;;;25.13;16.70;;;2.80;99.90;;;;;;5031662;28;20212;-67
2022/12/25 07:32:17;;;;;;;20.23;14.87;;;2.80;99.90;;;;;;5031084;28;20560;-68
2022/12/25 07:34:44;;;;;;;17.33;13.60;;;2.80;99.90;;;;;;5030429;28;20236;-68
2022/12/25 07:37:11;;;;;;;15.77;12.57;;;2.80;99.90;;;;;;5029527;28;20674;-67
2022/12/25 07:39:39;;;;;;;15.33;12.00;;;2.80;99.90;;;;;;5031719;28;20208;-66
2022/12/25 07:42:06;;;;;;;16.43;12.73;;;2.80;99.90;;;;;;5031823;28;20205;-66
2022/12/25 07:44:32;;;;;;;15.53;12.30;;;2.80;99.90;;;;;;5026347;28;20221;-67
2022/12/25 07:46:59;;;;;;;16.47;13.00;;;2.80;99.90;;;;;;5030055;28;20210;-67
2022/12/25 07:49:27;;;;;;;14.80;12.07;;;2.80;99.90;;;;;;5031390;28;20225;-66
2022/12/25 07:51:54;;;;;;;15.33;12.53;;;2.80;99.90;;;;;;5031417;28;20766;-66
2022/12/25 07:54:21;;;;;;;15.07;11.43;;;2.80;99.90;;;;;;5029335;28;20674;-68
2022/12/25 07:56:51;;;;;;;17.93;12.87;;;2.80;99.90;;;;;;5031013;28;20202;-71
2022/12/25 07:59:17;;;;;;;17.43;13.00;;;2.80;99.90;;;;;;5031063;28;20217;-66
2022/12/25 08:01:44;;;;;;;15.10;11.97;;;2.80;99.90;;;;;;5029764;28;20212;-67
2022/12/25 08:04:11;;;;;;;17.33;12.67;;;2.80;99.90;;;;;;5026714;28;20209;-66
2022/12/25 08:06:39;;;;;;;16.63;12.33;;;2.80;99.90;;;;;;5031511;28;20536;-66
2022/12/25 08:09:08;;;;;;;18.07;13.23;;;2.80;99.90;;;;;;5031510;28;20217;-66
2022/12/25 08:11:35;;;;;;;17.27;12.53;;;2.80;99.90;;;;;;5030513;28;20213;-65
2022/12/25 08:14:05;;;;;;;17.63;12.83;;;2.80;99.90;;;;;;5028643;28;20213;-67
2022/12/25 08:16:32;;;;;;;19.53;12.93;;;2.80;99.90;;;;;;5029726;28;20222;-66
2022/12/25 08:19:00;;;;;;;19.07;13.93;;;2.80;99.90;;;;;;5026265;28;20643;-66
2022/12/25 08:21:26;;;;;;;19.20;13.40;;;2.80;99.90;;;;;;5028706;28;20198;-67
2022/12/25 08:23:54;;;;;;;21.23;14.53;;;2.80;99.90;;;;;;5026838;28;20669;-68
2022/12/25 08:26:23;;;;;;;17.13;13.27;;;2.80;99.90;;;;;;5020034;28;20222;-68
2022/12/25 08:28:50;;;;;;;20.40;14.43;;;2.80;99.90;;;;;;5027341;28;20488;-68
2022/12/25 08:31:19;;;;;;;19.53;14.00;;;2.80;99.90;;;;;;5031267;28;20626;-70
2022/12/25 08:33:47;;;;;;;18.13;13.37;;;2.80;99.90;;;;;;5031155;28;20230;-68
2022/12/25 08:36:14;;;;;;;16.60;12.20;;;2.90;99.90;;;;;;5031396;28;20226;-66
2022/12/25 08:38:41;;;;;;;17.07;12.40;;;2.80;99.90;;;;;;5031276;28;20213;-67
2022/12/25 08:41:14;;;;;;;17.83;13.13;;;2.80;99.90;;;;;;5034766;28;20208;-68
2022/12/25 08:43:41;;;;;;;16.30;12.00;;;2.90;99.90;;;;;;5035158;28;20210;-70
2022/12/25 08:46:08;;;;;;;19.03;13.60;;;2.80;99.90;;;;;;5033769;28;20289;-68
2022/12/25 08:48:35;;;;;;;19.33;13.23;;;2.80;99.90;;;;;;5034942;28;20209;-69
2022/12/25 08:51:03;;;;;;;16.63;12.43;;;2.80;99.90;;;;;;5034010;28;20563;-66
2022/12/25 08:53:30;;;;;;;14.33;11.17;;;2.70;99.90;;;;;;5034375;28;20221;-65
2022/12/25 13:24:20;;;;;;;25.07;17.00;;;2.60;99.90;;;;;;5582692;22;20601;-70
2022/12/25 13:26:47;;;;;;;22.70;16.33;;;2.70;99.90;;;;;;5087333;28;20207;-68
2022/12/25 13:29:23;;;;;;;23.37;15.33;;;2.70;99.90;;;;;;5087271;28;20208;-67
2022/12/25 13:31:50;;;;;;;31.63;21.17;;;2.80;99.90;;;;;;5083863;28;20195;-70
2022/12/25 13:34:23;;;;;;;21.53;15.20;;;2.90;99.90;;;;;;5088202;28;20306;-70
2022/12/25 13:36:50;;;;;;;20.67;14.37;;;3.00;99.90;;;;;;5087047;28;20211;-71
2022/12/25 13:39:18;;;;;;;21.27;15.13;;;3.10;99.90;;;;;;5086597;28;20211;-69
2022/12/25 13:42:08;;;;;;;21.63;14.80;;;3.10;99.90;;;;;;5086587;28;20659;-69
2022/12/25 13:44:43;;;;;;;24.77;15.47;;;3.10;99.90;;;;;;5083051;28;20290;-69
2022/12/25 13:47:25;;;;;;;21.70;13.67;;;3.20;99.90;;;;;;5088973;28;20568;-69
2022/12/25 13:49:54;;;;;;;19.87;14.13;;;3.20;99.90;;;;;;5087177;28;20212;-69
2022/12/25 13:52:24;;;;;;;20.10;12.97;;;3.20;99.90;;;;;;5086731;28;20227;-68
2022/12/25 13:55:00;;;;;;;18.13;12.93;;;3.20;99.90;;;;;;5088300;28;20300;-70
2022/12/25 13:57:31;;;;;;;18.23;11.87;;;3.20;99.90;;;;;;5088562;28;20220;-68
2022/12/25 13:59:58;;;;;;;18.70;13.20;;;3.20;99.90;;;;;;5087231;28;20215;-70
2022/12/25 14:02:31;;;;;;;21.30;13.57;;;3.20;99.90;;;;;;5088061;28;20312;-69
2022/12/25 14:04:58;;;;;;;18.77;13.07;;;3.20;99.90;;;;;;5086218;28;20605;-70
2022/12/25 14:07:25;;;;;;;20.53;13.77;;;3.20;99.90;;;;;;5084800;28;20200;-69
2022/12/25 14:09:57;;;;;;;20.30;13.93;;;3.20;99.90;;;;;;5080776;28;20204;-71
2022/12/25 14:12:27;;;;;;;20.00;13.60;;;3.30;99.90;;;;;;5069994;28;20290;-71
2022/12/25 14:14:56;;;;;;;20.03;13.43;;;3.30;99.90;;;;;;5078961;28;20559;-69
2022/12/25 14:17:24;;;;;;;18.83;13.53;;;3.30;99.90;;;;;;5076178;28;20207;-70
2022/12/25 14:19:58;;;;;;;20.10;13.70;;;3.30;99.90;;;;;;5085521;28;20318;-71
2022/12/25 14:22:26;;;;;;;21.63;14.50;;;3.30;99.90;;;;;;5085803;28;20223;-71
2022/12/25 14:24:53;;;;;;;21.40;14.13;;;3.30;99.90;;;;;;5087233;28;20687;-68
2022/12/25 14:27:23;;;;;;;25.37;16.07;;;3.30;99.90;;;;;;5085334;28;20825;-70
2022/12/25 14:29:54;;;;;;;23.03;16.30;;;3.30;99.90;;;;;;5086291;28;20212;-68
2022/12/25 14:32:23;;;;;;;22.27;15.23;;;3.30;99.90;;;;;;5083851;28;20199;-66
2022/12/25 14:34:53;;;;;;;21.53;14.03;;;3.30;99.90;;;;;;5074779;28;20212;-68
2022/12/25 14:37:23;;;;;;;22.37;15.57;;;3.20;99.90;;;;;;5055290;28;20695;-66
2022/12/25 14:39:58;;;;;;;23.10;15.70;;;3.20;99.90;;;;;;5060839;28;20575;-67
2022/12/25 14:42:27;;;;;;;22.70;15.83;;;3.20;99.90;;;;;;5074168;28;20228;-66
2022/12/25 14:45:24;;;;;;;22.30;15.60;;;3.20;99.90;;;;;;5074716;28;20205;-65
2022/12/25 14:47:53;;;;;;;23.10;16.30;;;3.20;99.90;;;;;;5074028;28;20229;-66
2022/12/25 14:50:26;;;;;;;22.77;15.93;;;3.20;99.90;;;;;;5074114;28;20236;-65
2022/12/25 14:52:53;;;;;;;24.83;16.33;;;3.20;99.90;;;;;;5072269;28;20247;-65
2022/12/25 14:55:22;;;;;;;22.83;15.93;;;3.20;99.90;;;;;;5054011;28;20209;-64
2022/12/25 14:57:52;;;;;;;22.80;15.83;;;3.20;99.90;;;;;;5060279;28;20209;-65
2022/12/25 15:00:26;;;;;;;22.67;16.50;;;3.20;99.90;;;;;;5073933;28;20220;-67
2022/12/25 15:02:56;;;;;;;32.73;22.50;;;3.20;99.90;;;;;;5072763;28;20221;-65
2022/12/25 15:05:29;;;;;;;24.73;15.27;;;3.20;99.90;;;;;;5071420;28;20197;-68
2022/12/25 15:08:21;;;;;;;23.47;16.20;;;3.20;99.90;;;;;;5069419;28;20201;-66
2022/12/25 15:10:49;;;;;;;20.63;14.87;;;3.20;99.90;;;;;;5070105;28;20216;-66
2022/12/25 15:13:17;;;;;;;22.27;15.67;;;3.20;99.90;;;;;;5072072;28;20197;-67
2022/12/25 15:15:52;;;;;;;25.30;16.30;;;3.20;99.90;;;;;;5073038;28;20330;-66
2022/12/25 15:18:21;;;;;;;21.13;14.13;;;3.20;99.90;;;;;;5072812;28;20211;-66
2022/12/25 15:20:51;;;;;;;22.67;15.40;;;3.20;99.90;;;;;;5068900;28;20197;-68
2022/12/25 15:23:18;;;;;;;21.67;15.03;;;3.20;99.90;;;;;;5064141;28;20583;-67
2022/12/25 15:25:46;;;;;;;20.93;14.83;;;3.20;99.90;;;;;;5062829;28;20195;-66
2022/12/25 15:28:13;;;;;;;23.50;15.47;;;3.20;99.90;;;;;;5063457;28;20663;-67
2022/12/25 15:30:40;;;;;;;22.30;15.53;;;3.20;99.90;;;;;;5053679;28;20206;-67
2022/12/25 15:33:12;;;;;;;31.90;19.93;;;3.20;99.90;;;;;;5069958;28;20225;-66
2022/12/25 15:35:39;;;;;;;21.83;15.00;;;3.20;99.90;;;;;;5072922;28;20285;-66
2022/12/25 15:38:06;;;;;;;22.70;15.23;;;3.10;99.90;;;;;;5067989;28;20295;-66
2022/12/25 15:40:33;;;;;;;23.07;15.13;;;3.10;99.90;;;;;;5073130;28;20221;-66
2022/12/25 15:43:00;;;;;;;20.00;13.50;;;3.10;99.90;;;;;;5062171;28;20217;-66
2022/12/25 15:45:29;;;;;;;17.80;12.40;;;3.10;99.90;;;;;;5052085;28;20308;-65
2022/12/25 15:47:56;;;;;;;22.23;14.83;;;3.10;99.90;;;;;;5064677;28;20229;-76
2022/12/25 15:50:24;;;;;;;21.10;14.17;;;3.20;99.90;;;;;;5063847;28;20640;-80
2022/12/25 15:52:51;;;;;;;27.33;18.37;;;3.20;99.90;;;;;;5061093;28;20205;-79
2022/12/25 15:55:18;;;;;;;30.33;19.73;;;3.20;99.90;;;;;;5063645;28;20580;-79
2022/12/25 15:57:47;;;;;;;24.83;16.13;;;3.20;99.90;;;;;;5063591;28;20193;-78
2022/12/25 16:00:17;;;;;;;26.40;15.97;;;3.20;99.90;;;;;;5061318;28;20255;-80
2022/12/25 16:02:44;;;;;;;19.60;13.37;;;3.20;99.90;;;;;;5062526;28;20201;-79
2022/12/25 16:05:11;;;;;;;24.77;14.43;;;3.10;99.90;;;;;;5064622;28;20675;-79
2022/12/25 16:07:39;;;;;;;19.07;12.17;;;3.10;99.90;;;;;;5066361;28;20197;-76
2022/12/25 16:10:11;;;;;;;17.40;12.03;;;3.10;99.90;;;;;;5064502;28;20200;-80
2022/12/25 16:12:38;;;;;;;16.47;11.77;;;3.10;99.90;;;;;;5072114;28;20246;-79
2022/12/25 16:15:06;;;;;;;17.40;11.50;;;3.10;99.90;;;;;;5074458;28;20695;-81
2022/12/25 16:17:33;;;;;;;15.60;11.47;;;3.10;99.90;;;;;;5074022;28;20228;-80
2022/12/25 16:20:00;;;;;;;17.83;12.07;;;3.10;99.90;;;;;;5073871;28;20555;-80
2022/12/25 16:22:27;;;;;;;19.57;13.00;;;3.10;99.90;;;;;;5069609;28;20299;-81
2022/12/25 16:24:55;;;;;;;17.13;11.97;;;3.00;99.90;;;;;;5064971;28;20761;-80
2022/12/25 16:27:22;;;;;;;18.13;12.37;;;3.00;99.90;;;;;;5068568;28;20213;-80
2022/12/25 16:29:49;;;;;;;18.13;13.03;;;2.90;99.90;;;;;;5069281;28;20212;-80
2022/12/25 16:32:16;;;;;;;19.30;13.17;;;3.00;99.90;;;;;;5075131;28;20204;-82
2022/12/25 16:34:43;;;;;;;20.90;14.57;;;3.00;99.90;;;;;;5062457;28;20605;-82
2022/12/25 16:37:10;;;;;;;18.43;12.67;;;3.00;99.90;;;;;;5065762;28;20196;-81
2022/12/25 16:39:37;;;;;;;21.37;14.33;;;3.00;99.90;;;;;;5065431;28;20202;-80
2022/12/25 16:42:05;;;;;;;23.50;16.03;;;3.00;99.90;;;;;;5062985;28;20649;-74
2022/12/25 16:44:35;;;;;;;25.53;16.43;;;3.00;99.90;;;;;;5059956;28;20221;-72
2022/12/25 16:47:02;;;;;;;29.80;19.87;;;3.00;99.90;;;;;;5061355;28;20209;-68
2022/12/25 16:49:29;;;;;;;33.13;20.63;;;3.00;99.90;;;;;;5061917;28;20208;-68
2022/12/25 16:51:55;;;;;;;30.53;20.20;;;3.00;99.90;;;;;;5067597;28;20201;-70
2022/12/25 16:54:22;;;;;;;32.93;19.63;;;3.00;99.90;;;;;;5071573;28;20208;-69
2022/12/25 16:56:50;;;;;;;31.17;19.60;;;2.90;99.90;;;;;;5066987;28;20229;-70
2022/12/25 16:59:18;;;;;;;30.80;19.77;;;2.90;99.90;;;;;;5072026;28;20726;-68
2022/12/25 17:01:45;;;;;;;30.73;18.70;;;2.90;99.90;;;;;;5070920;28;20205;-72
2022/12/25 17:04:12;;;;;;;30.27;19.73;;;2.90;99.90;;;;;;5070201;28;20224;-72
2022/12/25 17:06:39;;;;;;;31.67;20.40;;;2.90;99.90;;;;;;5053690;28;20236;-71
2022/12/25 17:09:07;;;;;;;40.40;23.73;;;2.90;99.90;;;;;;5063056;28;20196;-71
2022/12/25 17:11:34;;;;;;;39.73;24.80;;;2.80;99.90;;;;;;5072060;28;20610;-70
2022/12/25 17:14:02;;;;;;;39.57;23.70;;;2.80;99.90;;;;;;5071654;28;20200;-71
2022/12/25 17:16:32;;;;;;;40.17;23.20;;;2.80;99.90;;;;;;5071690;28;20208;-71
2022/12/25 17:19:00;;;;;;;32.87;20.60;;;2.70;99.90;;;;;;5071544;28;20189;-72
2022/12/25 17:21:29;;;;;;;37.77;22.53;;;2.60;99.90;;;;;;5071668;28;20274;-71
2022/12/25 17:23:56;;;;;;;31.60;20.03;;;2.60;99.90;;;;;;5069959;28;20644;-73
2022/12/25 17:26:23;;;;;;;32.03;20.73;;;2.60;99.90;;;;;;5067852;28;20675;-71
2022/12/25 17:28:50;;;;;;;33.40;19.90;;;2.60;99.90;;;;;;5070503;28;20288;-72
2022/12/25 17:31:17;;;;;;;30.57;18.87;;;2.60;99.90;;;;;;5067952;28;20220;-69
2022/12/25 17:33:45;;;;;;;30.15;19.23;;;2.60;99.90;;;;;;5070401;28;20422;-70
2022/12/25 17:36:14;;;;;;;28.77;18.23;;;2.60;99.90;;;;;;5071806;28;20702;-71
2022/12/25 17:38:41;;;;;;;30.90;19.40;;;2.60;99.90;;;;;;5062366;28;20196;-69
2022/12/25 17:41:11;;;;;;;30.40;18.60;;;2.60;99.90;;;;;;5059655;28;20216;-69
2022/12/25 17:43:40;;;;;;;30.07;18.97;;;2.60;99.90;;;;;;5064328;28;20232;-71
2022/12/25 17:46:07;;;;;;;29.30;18.67;;;2.60;99.90;;;;;;5062419;28;20651;-70
2022/12/25 17:48:35;;;;;;;29.30;18.30;;;2.50;99.90;;;;;;5070341;28;20295;-71
2022/12/25 17:51:06;;;;;;;28.23;17.67;;;2.40;99.90;;;;;;5057208;28;20213;-71
2022/12/25 17:53:34;;;;;;;23.73;16.10;;;2.50;99.90;;;;;;5069169;28;20242;-70
2022/12/25 17:56:01;;;;;;;27.90;18.03;;;2.50;99.90;;;;;;5066155;28;20237;-68
2022/12/25 17:58:28;;;;;;;26.13;17.03;;;2.50;99.90;;;;;;5056282;28;20223;-68
2022/12/25 18:00:55;;;;;;;26.97;17.20;;;2.50;99.90;;;;;;5069456;28;20196;-75
2022/12/25 18:03:22;;;;;;;28.23;18.17;;;2.60;99.90;;;;;;5067581;28;20205;-72
2022/12/25 18:05:50;;;;;;;28.80;18.23;;;2.60;99.90;;;;;;5070845;28;20205;-73
2022/12/25 18:08:19;;;;;;;31.13;19.67;;;2.60;99.90;;;;;;5071476;28;20209;-71
2022/12/25 18:10:45;;;;;;;28.90;19.40;;;2.50;99.90;;;;;;5073629;28;20601;-70
2022/12/25 18:13:12;;;;;;;26.90;17.67;;;2.40;99.90;;;;;;5073776;28;20661;-70
2022/12/25 18:15:40;;;;;;;29.53;20.47;;;2.40;99.90;;;;;;5074421;28;20197;-71
2022/12/25 18:18:08;;;;;;;25.73;17.50;;;2.30;99.90;;;;;;5070940;28;20209;-72
2022/12/25 18:20:36;;;;;;;24.73;16.80;;;2.40;99.90;;;;;;5074663;28;20254;-71
2022/12/25 18:23:03;;;;;;;23.60;16.20;;;2.30;99.90;;;;;;5074242;28;20376;-70
2022/12/25 18:25:32;;;;;;;24.93;16.83;;;2.30;99.90;;;;;;5063084;28;20727;-72
2022/12/25 18:27:59;;;;;;;25.57;16.70;;;2.20;99.90;;;;;;5067249;28;20216;-69
2022/12/25 18:30:27;;;;;;;20.60;14.83;;;2.20;99.90;;;;;;5074737;28;20209;-70
2022/12/25 18:32:54;;;;;;;19.93;14.10;;;2.20;99.90;;;;;;5072851;28;20209;-69
2022/12/25 18:35:20;;;;;;;21.13;15.40;;;2.20;99.90;;;;;;5069713;28;20197;-69
2022/12/25 18:37:47;;;;;;;24.10;16.83;;;2.30;99.90;;;;;;5065415;28;20202;-70
2022/12/25 18:40:14;;;;;;;23.30;16.53;;;2.30;99.90;;;;;;5069044;28;20208;-69
2022/12/25 18:42:45;;;;;;;26.60;17.50;;;2.30;99.90;;;;;;5073278;28;20200;-68
2022/12/25 18:45:13;;;;;;;24.80;16.70;;;2.30;99.90;;;;;;5054840;28;20220;-71
2022/12/25 18:47:40;;;;;;;22.57;15.67;;;2.30;99.90;;;;;;5059020;28;20538;-70
2022/12/25 18:50:09;;;;;;;21.10;15.27;;;2.30;99.90;;;;;;5074407;28;20587;-72